createdAt,value
2019-06-08T00:00:05.251Z,14.53
2019-06-08T00:02:33.436Z,14.23
2019-06-08T00:05:01.551Z,14.33
2019-06-08T00:07:29.676Z,14.52
2019-06-08T00:09:57.820Z,14.39
2019-06-08T00:12:27.078Z,14.39
2019-06-08T00:14:55.210Z,14.51
2019-06-08T00:17:35.705Z,14.42
2019-06-08T00:19:53.241Z,14.57
2019-06-08T00:22:21.935Z,14.34
2019-06-08T00:24:50.089Z,14.57
2019-06-08T00:27:20.212Z,14.02
2019-06-08T00:29:48.176Z,14.39
2019-06-08T00:32:16.349Z,14.26
2019-06-08T00:34:44.577Z,14.35
2019-06-08T00:37:12.711Z,13.88
2019-06-08T00:39:40.940Z,13.88
2019-06-08T00:42:09.181Z,14.11
2019-06-08T00:44:37.443Z,14.09
2019-06-08T00:47:05.675Z,13.75
2019-06-08T00:49:33.975Z,13.92
2019-06-08T00:52:02.181Z,13.85
2019-06-08T00:54:30.513Z,13.77
2019-06-08T00:56:58.791Z,13.81
2019-06-08T00:59:26.912Z,13.88
2019-06-08T01:01:55.021Z,13.84
2019-06-08T01:04:23.213Z,13.68
2019-06-08T01:06:51.369Z,13.72
2019-06-08T01:09:20.195Z,13.60
2019-06-08T01:11:48.526Z,13.45
2019-06-08T01:14:16.778Z,13.52
2019-06-08T01:16:45.222Z,13.56
2019-06-08T01:19:13.483Z,13.60
2019-06-08T01:21:41.629Z,13.56
2019-06-08T01:24:09.874Z,13.70
2019-06-08T01:26:38.318Z,13.45
2019-06-08T01:29:06.517Z,13.70
2019-06-08T01:31:34.732Z,13.71
2019-06-08T01:34:03.080Z,13.45
2019-06-08T01:36:31.333Z,13.55
2019-06-08T01:38:59.585Z,13.43
2019-06-08T01:41:27.866Z,13.44
2019-06-08T01:43:56.020Z,13.51
2019-06-08T01:46:24.179Z,13.24
2019-06-08T01:48:52.273Z,13.48
2019-06-08T01:51:20.656Z,13.47
2019-06-08T01:53:48.806Z,13.42
2019-06-08T01:56:17.040Z,13.24
2019-06-08T01:58:45.191Z,13.17
2019-06-08T02:01:13.431Z,13.45
2019-06-08T02:03:41.682Z,13.28
2019-06-08T02:06:09.771Z,13.33
2019-06-08T02:08:37.964Z,13.33
2019-06-08T02:11:06.386Z,13.38
2019-06-08T02:13:35.240Z,13.18
2019-06-08T02:16:03.565Z,13.16
2019-06-08T02:18:39.929Z,13.06
2019-06-08T02:21:01.544Z,13.12
2019-06-08T02:23:31.035Z,13.04
2019-06-08T02:25:59.421Z,13.07
2019-06-08T02:28:27.568Z,13.22
2019-06-08T02:30:55.846Z,13.13
2019-06-08T02:33:23.970Z,13.01
2019-06-08T02:35:52.140Z,13.16
2019-06-08T02:38:20.317Z,12.83
2019-06-08T02:40:48.486Z,12.86
2019-06-08T02:43:16.620Z,12.73
2019-06-08T02:45:44.832Z,12.97
2019-06-08T02:48:12.947Z,12.81
2019-06-08T02:50:57.278Z,12.91
2019-06-08T02:53:29.220Z,12.93
2019-06-08T02:55:57.186Z,12.94
2019-06-08T02:58:25.434Z,12.74
2019-06-08T03:00:55.347Z,12.63
2019-06-08T03:03:23.703Z,12.79
2019-06-08T03:05:52.264Z,12.92
2019-06-08T03:08:21.624Z,12.76
2019-06-08T03:10:54.098Z,12.60
2019-06-08T03:13:24.399Z,12.80
2019-06-08T03:15:51.901Z,12.68
2019-06-08T03:18:20.073Z,12.73
2019-06-08T03:20:48.409Z,12.79
2019-06-08T03:23:16.639Z,12.65
2019-06-08T03:25:52.632Z,12.71
2019-06-08T03:28:14.660Z,12.84
2019-06-08T03:30:52.333Z,12.79
2019-06-08T03:33:12.705Z,12.73
2019-06-08T03:35:52.582Z,12.77
2019-06-08T03:38:10.806Z,12.70
2019-06-08T03:40:40.567Z,12.92
2019-06-08T03:43:08.940Z,12.68
2019-06-08T03:45:38.244Z,12.70
2019-06-08T03:48:06.523Z,12.62
2019-06-08T03:50:35.534Z,12.80
2019-06-08T03:53:05.011Z,12.86
2019-06-08T03:55:33.208Z,12.86
2019-06-08T03:58:01.462Z,12.70
2019-06-08T04:00:29.827Z,12.72
2019-06-08T04:02:57.984Z,12.74
2019-06-08T04:05:26.112Z,12.91
2019-06-08T04:07:54.310Z,12.67
2019-06-08T04:10:22.492Z,12.76
2019-06-08T04:12:50.800Z,12.79
2019-06-08T04:15:18.945Z,12.74
2019-06-08T04:17:47.269Z,13.01
2019-06-08T04:20:16.121Z,12.88
2019-06-08T04:22:47.481Z,12.97
2019-06-08T04:25:15.859Z,12.93
2019-06-08T04:27:44.807Z,12.84
2019-06-08T04:30:15.579Z,12.90
2019-06-08T04:32:44.931Z,12.93
2019-06-08T04:35:13.298Z,13.04
2019-06-08T04:37:42.585Z,13.06
2019-06-08T04:40:12.041Z,13.05
2019-06-08T04:42:41.801Z,12.91
2019-06-08T04:45:10.430Z,13.15
2019-06-08T04:47:40.732Z,12.91
2019-06-08T04:50:21.439Z,13.00
2019-06-08T04:52:40.547Z,12.95
2019-06-08T04:55:08.662Z,12.91
2019-06-08T04:57:39.205Z,12.84
2019-06-08T05:00:12.062Z,12.93
2019-06-08T05:02:39.103Z,12.92
2019-06-08T05:05:07.771Z,13.00
2019-06-08T05:07:36.004Z,12.95
2019-06-08T05:10:05.079Z,12.93
2019-06-08T05:12:33.351Z,12.93
2019-06-08T05:15:01.411Z,12.95
2019-06-08T05:17:29.787Z,12.93
2019-06-08T05:19:57.994Z,12.99
2019-06-08T05:22:26.138Z,13.00
2019-06-08T05:24:54.507Z,13.06
2019-06-08T05:27:22.749Z,13.21
2019-06-08T05:29:50.970Z,13.17
2019-06-08T05:32:19.303Z,13.22
2019-06-08T05:34:47.686Z,13.29
2019-06-08T05:37:15.998Z,13.35
2019-06-08T05:39:44.176Z,13.49
2019-06-08T05:42:12.478Z,13.55
2019-06-08T05:44:41.612Z,13.51
2019-06-08T05:47:09.798Z,13.60
2019-06-08T05:49:37.956Z,13.69
2019-06-08T05:52:06.148Z,13.73
2019-06-08T05:54:34.406Z,13.83
2019-06-08T05:57:02.548Z,13.79
2019-06-08T05:59:30.728Z,13.98
2019-06-08T06:01:58.998Z,14.03
2019-06-08T06:04:27.178Z,14.05
2019-06-08T06:06:55.299Z,14.09
2019-06-08T06:09:23.515Z,14.21
2019-06-08T06:11:51.696Z,14.39
2019-06-08T06:14:19.856Z,14.48
2019-06-08T06:16:49.124Z,14.50
2019-06-08T06:19:17.363Z,14.64
2019-06-08T06:21:45.486Z,14.84
2019-06-08T06:24:13.616Z,14.91
2019-06-08T06:26:41.854Z,14.90
2019-06-08T06:29:10.131Z,14.96
2019-06-08T06:31:38.416Z,15.24
2019-06-08T06:34:06.592Z,15.24
2019-06-08T06:36:34.699Z,15.51
2019-06-08T06:39:02.909Z,15.85
2019-06-08T06:41:31.090Z,15.73
2019-06-08T06:43:59.328Z,15.74
2019-06-08T06:46:27.504Z,15.99
2019-06-08T06:48:55.740Z,16.08
2019-06-08T06:51:26.690Z,16.03
2019-06-08T06:53:53.873Z,16.02
2019-06-08T06:56:21.976Z,16.25
2019-06-08T06:58:51.340Z,16.38
2019-06-08T07:01:19.762Z,16.18
2019-06-08T07:03:48.032Z,16.04
2019-06-08T07:06:16.101Z,16.04
2019-06-08T07:08:44.322Z,16.08
2019-06-08T07:11:12.468Z,15.62
2019-06-08T07:13:40.604Z,15.92
2019-06-08T07:16:18.406Z,15.74
2019-06-08T07:18:38.721Z,15.96
2019-06-08T07:21:07.351Z,15.84
2019-06-08T07:23:35.492Z,16.51
2019-06-08T07:26:03.655Z,16.51
2019-06-08T07:28:31.780Z,16.41
2019-06-08T07:30:59.955Z,16.06
2019-06-08T07:33:28.088Z,16.05
2019-06-08T07:35:56.285Z,16.43
2019-06-08T07:38:24.435Z,16.39
2019-06-08T07:40:53.831Z,16.30
2019-06-08T07:43:22.414Z,16.11
2019-06-08T07:45:51.857Z,16.95
2019-06-08T07:48:20.123Z,16.95
2019-06-08T07:50:48.455Z,17.16
2019-06-08T07:53:16.899Z,17.38
2019-06-08T07:55:45.585Z,17.05
2019-06-08T07:58:13.987Z,17.01
2019-06-08T08:00:42.313Z,16.89
2019-06-08T08:03:13.559Z,16.78
2019-06-08T08:05:41.728Z,16.99
2019-06-08T08:08:09.965Z,16.69
2019-06-08T08:10:38.164Z,17.33
2019-06-08T08:13:06.469Z,17.59
2019-06-08T08:15:34.664Z,17.79
2019-06-08T08:18:03.046Z,17.81
2019-06-08T08:20:31.186Z,18.06
2019-06-08T08:23:05.505Z,18.06
2019-06-08T08:25:29.422Z,17.73
2019-06-08T08:27:59.339Z,18.30
2019-06-08T08:30:28.451Z,18.23
2019-06-08T08:33:01.069Z,18.36
2019-06-08T08:35:28.038Z,18.46
2019-06-08T08:38:00.779Z,18.37
2019-06-08T08:40:28.186Z,18.77
2019-06-08T08:42:58.259Z,18.17
2019-06-08T08:45:27.630Z,18.13
2019-06-08T08:48:13.665Z,18.05
2019-06-08T08:50:28.180Z,18.05
2019-06-08T08:52:58.560Z,18.56
2019-06-08T08:55:27.858Z,18.69
2019-06-08T08:57:57.062Z,18.03
2019-06-08T09:00:24.743Z,18.49
2019-06-08T09:03:10.752Z,17.96
2019-06-08T09:05:22.904Z,17.36
2019-06-08T09:07:52.234Z,17.53
2019-06-08T09:10:21.037Z,17.29
2019-06-08T09:12:49.305Z,17.77
2019-06-08T09:15:19.244Z,18.12
2019-06-08T09:17:48.286Z,16.87
2019-06-08T09:20:19.162Z,17.32
2019-06-08T09:22:53.809Z,17.94
2019-06-08T09:25:18.227Z,18.00
2019-06-08T09:27:48.273Z,17.60
2019-06-08T09:30:18.297Z,17.88
2019-06-08T09:32:47.777Z,18.40
2019-06-08T09:35:18.665Z,18.27
2019-06-08T09:37:45.489Z,17.60
2019-06-08T09:40:13.742Z,17.83
2019-06-08T09:42:41.962Z,17.74
2019-06-08T09:45:10.638Z,17.93
2019-06-08T09:47:38.832Z,17.85
2019-06-08T09:50:09.262Z,18.20
2019-06-08T09:52:40.895Z,17.99
2019-06-08T09:55:08.991Z,18.05
2019-06-08T09:57:35.157Z,18.32
2019-06-08T10:00:14.505Z,17.93
2019-06-08T10:02:32.585Z,17.85
2019-06-08T10:05:02.721Z,18.02
2019-06-08T10:07:31.306Z,18.05
2019-06-08T10:10:02.528Z,18.43
2019-06-08T10:12:29.713Z,17.82
2019-06-08T10:14:58.804Z,17.62
2019-06-08T10:17:27.867Z,18.03
2019-06-08T10:19:59.254Z,17.95
2019-06-08T10:22:28.097Z,17.68
2019-06-08T10:24:58.040Z,17.92
2019-06-08T10:27:28.227Z,17.44
2019-06-08T10:29:58.642Z,17.58
2019-06-08T10:32:28.042Z,17.57
2019-06-08T10:34:58.656Z,18.02
2019-06-08T10:37:28.199Z,18.26
2019-06-08T10:39:58.674Z,18.18
2019-06-08T10:42:25.826Z,18.30
2019-06-08T10:44:54.001Z,17.95
2019-06-08T10:47:22.184Z,18.14
2019-06-08T10:49:50.381Z,18.36
2019-06-08T10:52:20.376Z,18.21
2019-06-08T10:54:48.537Z,18.47
2019-06-08T10:57:18.250Z,18.72
2019-06-08T10:59:48.625Z,18.30
2019-06-08T11:02:18.702Z,17.99
2019-06-08T11:04:48.296Z,18.63
2019-06-08T11:07:16.683Z,17.67
2019-06-08T11:09:44.868Z,18.11
2019-06-08T11:12:15.289Z,18.72
2019-06-08T11:14:42.903Z,18.30
2019-06-08T11:17:11.435Z,18.69
2019-06-08T11:19:40.090Z,18.34
2019-06-08T11:22:13.868Z,18.69
2019-06-08T11:24:38.825Z,18.08
2019-06-08T11:27:10.597Z,18.41
2019-06-08T11:29:38.389Z,18.13
2019-06-08T11:32:10.938Z,18.65
2019-06-08T11:34:37.692Z,18.17
2019-06-08T11:37:09.400Z,18.33
2019-06-08T11:39:38.046Z,18.08
2019-06-08T11:42:09.273Z,18.64
2019-06-08T11:44:38.766Z,18.32
2019-06-08T11:47:10.588Z,18.09
2019-06-08T11:49:36.577Z,18.02
2019-06-08T11:52:04.738Z,17.89
2019-06-08T11:54:37.389Z,18.37
2019-06-08T11:57:02.849Z,18.21
2019-06-08T11:59:32.790Z,18.55
2019-06-08T12:02:01.892Z,18.60
2019-06-08T12:04:30.204Z,18.60
2019-06-08T12:06:58.557Z,18.44
2019-06-08T12:09:28.682Z,18.31
2019-06-08T12:11:58.000Z,18.15
2019-06-08T12:14:25.771Z,18.01
2019-06-08T12:16:53.946Z,18.55
2019-06-08T12:19:22.218Z,18.90
2019-06-08T12:21:50.349Z,20.02
2019-06-08T12:24:18.607Z,20.20
2019-06-08T12:26:47.681Z,20.46
2019-06-08T12:29:16.691Z,19.68
2019-06-08T12:31:45.492Z,20.12
2019-06-08T12:34:13.678Z,19.50
2019-06-08T12:36:41.972Z,20.01
2019-06-08T12:39:10.180Z,19.82
2019-06-08T12:41:38.368Z,20.94
2019-06-08T12:44:09.332Z,20.13
2019-06-08T12:46:38.372Z,19.93
2019-06-08T12:49:05.568Z,19.46
2019-06-08T12:51:33.846Z,20.34
2019-06-08T12:54:02.104Z,21.45
2019-06-08T12:56:30.274Z,20.60
2019-06-08T12:58:58.553Z,20.71
2019-06-08T13:01:28.233Z,20.96
2019-06-08T13:03:58.168Z,20.13
2019-06-08T13:06:28.313Z,19.96
2019-06-08T13:08:57.808Z,19.60
2019-06-08T13:11:28.182Z,19.56
2019-06-08T13:13:56.002Z,20.04
2019-06-08T13:16:24.795Z,19.31
2019-06-08T13:18:53.166Z,19.57
2019-06-08T13:21:33.263Z,20.38
2019-06-08T13:23:50.358Z,20.21
2019-06-08T13:26:24.876Z,20.74
2019-06-08T13:28:47.546Z,20.20
2019-06-08T13:31:18.226Z,21.41
2019-06-08T13:33:44.616Z,21.33
2019-06-08T13:36:12.814Z,21.08
2019-06-08T13:38:41.008Z,21.16
2019-06-08T13:41:09.306Z,21.16
2019-06-08T13:43:40.315Z,19.96
2019-06-08T13:46:08.208Z,20.66
2019-06-08T13:48:37.595Z,20.59
2019-06-08T13:51:05.894Z,21.70
2019-06-08T13:53:34.086Z,21.34
2019-06-08T13:56:02.270Z,21.72
2019-06-08T13:58:33.408Z,21.27
2019-06-08T14:01:00.436Z,22.42
2019-06-08T14:03:28.651Z,23.55
2019-06-08T14:05:56.844Z,22.62
2019-06-08T14:08:29.979Z,23.01
2019-06-08T14:11:00.475Z,22.38
2019-06-08T14:13:29.138Z,22.82
2019-06-08T14:15:54.537Z,23.14
2019-06-08T14:18:26.486Z,24.30
2019-06-08T14:20:54.671Z,23.45
2019-06-08T14:23:23.135Z,24.21
2019-06-08T14:25:56.656Z,24.13
2019-06-08T14:28:23.286Z,24.42
2019-06-08T14:30:52.249Z,25.59
2019-06-08T14:33:25.253Z,23.41
2019-06-08T14:35:50.337Z,24.76
2019-06-08T14:38:23.850Z,23.92
2019-06-08T14:40:48.459Z,24.05
2019-06-08T14:43:17.625Z,24.61
2019-06-08T14:45:46.598Z,22.11
2019-06-08T14:48:14.944Z,24.74
2019-06-08T14:50:43.140Z,25.56
2019-06-08T14:53:11.292Z,24.70
2019-06-08T14:55:39.519Z,23.47
2019-06-08T14:58:08.381Z,25.60
2019-06-08T15:00:38.103Z,26.05
2019-06-08T15:03:07.689Z,27.23
2019-06-08T15:05:35.550Z,26.05
2019-06-08T15:08:03.862Z,24.77
2019-06-08T15:10:32.027Z,25.62
2019-06-08T15:13:00.225Z,25.25
2019-06-08T15:15:30.777Z,26.36
2019-06-08T15:17:58.486Z,24.69
2019-06-08T15:20:26.751Z,26.17
2019-06-08T15:22:55.029Z,26.91
2019-06-08T15:25:23.253Z,27.32
2019-06-08T15:27:51.445Z,27.85
2019-06-08T15:30:21.152Z,25.16
2019-06-08T15:32:49.843Z,23.39
2019-06-08T15:35:18.205Z,25.19
2019-06-08T15:37:47.896Z,25.49
2019-06-08T15:40:17.689Z,24.44
2019-06-08T15:42:47.981Z,23.24
2019-06-08T15:45:18.166Z,24.82
2019-06-08T15:47:48.017Z,23.72
2019-06-08T15:50:17.972Z,24.57
2019-06-08T15:52:47.979Z,26.23
2019-06-08T15:55:15.776Z,26.89
2019-06-08T15:57:43.983Z,26.82
2019-06-08T16:00:12.470Z,23.75
2019-06-08T16:02:40.759Z,24.50
2019-06-08T16:05:09.084Z,23.31
2019-06-08T16:07:37.318Z,25.85
2019-06-08T16:10:06.351Z,26.06
2019-06-08T16:12:35.133Z,27.28
2019-06-08T16:15:03.317Z,27.74
2019-06-08T16:17:31.489Z,27.16
2019-06-08T16:19:59.819Z,25.45
2019-06-08T16:22:27.975Z,25.26
2019-06-08T16:24:56.498Z,25.23
2019-06-08T16:27:25.734Z,24.06
2019-06-08T16:29:53.982Z,23.41
2019-06-08T16:32:22.394Z,22.36
2019-06-08T16:34:50.834Z,21.82
2019-06-08T16:37:19.160Z,23.49
2019-06-08T16:39:47.412Z,23.04
2019-06-08T16:42:15.596Z,22.66
2019-06-08T16:44:43.841Z,25.65
2019-06-08T16:47:12.225Z,22.42
2019-06-08T16:49:40.569Z,23.45
2019-06-08T16:52:08.802Z,25.20
2019-06-08T16:54:37.536Z,24.94
2019-06-08T16:57:10.586Z,24.89
2019-06-08T16:59:36.656Z,25.29
2019-06-08T17:02:04.894Z,23.91
2019-06-08T17:04:33.290Z,24.51
2019-06-08T17:07:02.756Z,24.82
2019-06-08T17:09:32.524Z,24.57
2019-06-08T17:12:00.947Z,25.67
2019-06-08T17:14:30.051Z,25.23
2019-06-08T17:16:58.219Z,25.66
2019-06-08T17:19:26.422Z,25.32
2019-06-08T17:21:55.014Z,24.88
2019-06-08T17:24:23.316Z,24.09
2019-06-08T17:26:51.530Z,22.21
2019-06-08T17:29:19.817Z,21.86
2019-06-08T17:31:48.165Z,23.67
2019-06-08T17:34:16.426Z,24.49
2019-06-08T17:36:44.648Z,22.31
2019-06-08T17:39:12.867Z,23.26
2019-06-08T17:41:42.094Z,22.89
2019-06-08T17:44:10.779Z,20.46
2019-06-08T17:46:39.228Z,18.44
2019-06-08T17:49:08.067Z,17.18
2019-06-08T17:51:37.307Z,16.45
2019-06-08T17:54:05.652Z,16.13
2019-06-08T17:56:35.010Z,16.58
2019-06-08T17:59:03.625Z,18.61
2019-06-08T18:01:33.895Z,17.92
2019-06-08T18:04:01.894Z,18.64
2019-06-08T18:06:30.104Z,18.83
2019-06-08T18:08:59.097Z,19.13
2019-06-08T18:11:27.976Z,19.09
2019-06-08T18:13:58.822Z,19.11
2019-06-08T18:16:27.762Z,18.95
2019-06-08T18:18:57.589Z,19.42
2019-06-08T18:21:25.443Z,19.60
2019-06-08T18:23:53.663Z,19.72
2019-06-08T18:26:21.801Z,19.20
2019-06-08T18:28:50.025Z,19.50
2019-06-08T18:31:18.244Z,19.29
2019-06-08T18:33:50.088Z,19.50
2019-06-08T18:36:17.418Z,18.61
2019-06-08T18:38:48.365Z,17.98
2019-06-08T18:41:17.531Z,17.68
2019-06-08T18:43:46.108Z,17.93
2019-06-08T18:46:14.610Z,16.95
2019-06-08T18:48:44.565Z,16.94
2019-06-08T18:51:13.173Z,18.31
2019-06-08T18:54:01.513Z,17.57
2019-06-08T18:56:10.711Z,18.54
2019-06-08T18:58:39.710Z,18.86
2019-06-08T19:01:08.777Z,18.71
2019-06-08T19:03:40.311Z,18.65
2019-06-08T19:06:10.166Z,18.60
2019-06-08T19:08:39.197Z,18.42
2019-06-08T19:11:05.074Z,18.06
2019-06-08T19:13:34.227Z,17.60
2019-06-08T19:16:02.417Z,17.46
2019-06-08T19:18:30.680Z,17.74
2019-06-08T19:20:59.080Z,17.55
2019-06-08T19:23:27.977Z,17.11
2019-06-08T19:25:57.808Z,17.17
2019-06-08T19:28:35.588Z,16.00
2019-06-08T19:30:58.158Z,15.59
2019-06-08T19:33:28.042Z,16.25
2019-06-08T19:35:58.195Z,15.79
2019-06-08T19:38:27.865Z,15.44
2019-06-08T19:40:57.302Z,15.48
2019-06-08T19:43:27.754Z,15.93
2019-06-08T19:45:57.833Z,16.03
2019-06-08T19:48:29.803Z,16.15
2019-06-08T19:50:55.310Z,15.82
2019-06-08T19:53:23.666Z,16.14
2019-06-08T19:55:53.872Z,16.52
2019-06-08T19:58:21.941Z,16.90
2019-06-08T20:00:54.229Z,16.89
2019-06-08T20:03:19.440Z,16.93
2019-06-08T20:05:50.650Z,16.92
2019-06-08T20:08:17.644Z,16.75
2019-06-08T20:10:48.067Z,16.87
2019-06-08T20:13:16.087Z,16.12
2019-06-08T20:15:50.668Z,16.42
2019-06-08T20:18:17.074Z,16.21
2019-06-08T20:20:45.739Z,16.37
2019-06-08T20:23:13.759Z,16.49
2019-06-08T20:25:45.146Z,16.38
2019-06-08T20:28:13.469Z,16.43
2019-06-08T20:30:42.267Z,16.11
2019-06-08T20:33:10.525Z,15.91
2019-06-08T20:35:38.886Z,16.02
2019-06-08T20:38:08.793Z,16.03
2019-06-08T20:40:38.280Z,15.95
2019-06-08T20:43:07.200Z,15.86
2019-06-08T20:45:37.458Z,15.61
2019-06-08T20:48:05.192Z,15.66
2019-06-08T20:50:33.494Z,14.80
2019-06-08T20:53:01.672Z,14.93
2019-06-08T20:55:30.046Z,15.29
2019-06-08T20:57:58.268Z,15.12
2019-06-08T21:00:26.500Z,14.58
2019-06-08T21:02:56.598Z,15.03
2019-06-08T21:05:24.607Z,15.17
2019-06-08T21:07:54.478Z,15.05
2019-06-08T21:10:24.495Z,14.88
2019-06-08T21:12:52.977Z,14.97
2019-06-08T21:15:21.783Z,14.74
2019-06-08T21:17:51.934Z,14.31
2019-06-08T21:20:20.002Z,14.37
2019-06-08T21:22:50.913Z,14.64
2019-06-08T21:25:18.495Z,14.64
2019-06-08T21:27:48.485Z,14.48
2019-06-08T21:30:23.963Z,14.65
2019-06-08T21:32:50.292Z,14.53
2019-06-08T21:35:18.388Z,14.48
2019-06-08T21:37:50.673Z,14.47
2019-06-08T21:40:17.580Z,14.36
2019-06-08T21:42:48.961Z,14.07
2019-06-08T21:45:15.807Z,13.84
2019-06-08T21:47:47.185Z,14.00
2019-06-08T21:50:14.742Z,13.70
2019-06-08T21:52:42.958Z,13.81
2019-06-08T21:55:11.196Z,13.81
2019-06-08T21:57:39.325Z,13.83
2019-06-08T22:00:27.103Z,13.74
2019-06-08T22:02:40.060Z,13.74
2019-06-08T22:05:08.840Z,13.74
2019-06-08T22:07:37.754Z,13.60
2019-06-08T22:10:07.439Z,13.64
2019-06-08T22:12:39.486Z,13.59
2019-06-08T22:15:07.478Z,13.47
2019-06-08T22:17:38.107Z,13.51
2019-06-08T22:20:08.000Z,13.45
2019-06-08T22:22:37.828Z,13.39
2019-06-08T22:25:08.281Z,13.33
2019-06-08T22:27:38.164Z,13.05
2019-06-08T22:30:13.940Z,12.90
2019-06-08T22:32:38.497Z,12.87
2019-06-08T22:35:08.028Z,13.04
2019-06-08T22:37:38.052Z,13.07
2019-06-08T22:40:08.163Z,13.16
2019-06-08T22:42:37.452Z,12.95
2019-06-08T22:45:08.295Z,12.55
2019-06-08T22:47:35.349Z,12.85
2019-06-08T22:50:03.801Z,12.87
2019-06-08T22:52:31.917Z,12.64
2019-06-08T22:55:05.202Z,12.64
2019-06-08T22:57:29.911Z,12.52
2019-06-08T23:00:00.093Z,12.71
2019-06-08T23:02:27.988Z,12.76
2019-06-08T23:04:56.288Z,12.71
2019-06-08T23:07:29.803Z,12.64
2019-06-08T23:09:56.023Z,12.61
2019-06-08T23:12:24.366Z,12.60
2019-06-08T23:14:52.594Z,12.29
2019-06-08T23:17:20.777Z,12.28
2019-06-08T23:19:48.905Z,12.22
2019-06-08T23:22:17.738Z,12.17
2019-06-08T23:24:47.725Z,12.23
2019-06-08T23:27:17.590Z,12.12
2019-06-08T23:29:47.519Z,11.96
2019-06-08T23:32:18.087Z,12.00
2019-06-08T23:34:47.829Z,12.05
2019-06-08T23:37:18.126Z,11.90
2019-06-08T23:39:47.061Z,12.15
2019-06-08T23:42:17.717Z,12.09
2019-06-08T23:44:47.173Z,12.03
2019-06-08T23:47:15.177Z,12.07
2019-06-08T23:49:43.379Z,12.13
2019-06-08T23:52:11.861Z,12.04
2019-06-08T23:54:40.038Z,11.95
2019-06-08T23:57:10.075Z,11.96
2019-06-08T23:59:38.229Z,11.96
